createdAt,value
2018-12-03T00:00:20.103Z,58.00
2018-12-03T00:00:57.805Z,58.00
2018-12-03T00:01:35.359Z,58.10
2018-12-03T00:02:12.746Z,58.10
2018-12-03T00:02:50.437Z,58.10
2018-12-03T00:03:28.099Z,58.10
2018-12-03T00:04:05.520Z,58.70
2018-12-03T00:04:43.064Z,58.10
2018-12-03T00:05:20.616Z,58.10
2018-12-03T00:05:58.194Z,58.10
2018-12-03T00:06:36.091Z,58.10
2018-12-03T00:07:13.835Z,58.10
2018-12-03T00:07:51.495Z,58.10
2018-12-03T00:08:29.377Z,58.10
2018-12-03T00:09:06.896Z,58.10
2018-12-03T00:09:44.366Z,58.10
2018-12-03T00:10:22.075Z,58.00
2018-12-03T00:10:59.966Z,58.00
2018-12-03T00:11:37.646Z,58.10
2018-12-03T00:12:15.226Z,58.10
2018-12-03T00:12:52.866Z,58.00
2018-12-03T00:13:30.485Z,58.00
2018-12-03T00:14:08.161Z,58.10
2018-12-03T00:14:45.495Z,58.10
2018-12-03T00:15:23.074Z,58.20
2018-12-03T00:16:00.925Z,58.20
2018-12-03T00:16:38.375Z,58.20
2018-12-03T00:17:16.739Z,58.20
2018-12-03T00:17:54.384Z,58.30
2018-12-03T00:18:32.024Z,58.10
2018-12-03T00:19:09.986Z,58.20
2018-12-03T00:19:47.686Z,58.20
2018-12-03T00:20:25.525Z,58.30
2018-12-03T00:21:03.280Z,58.20
2018-12-03T00:21:40.677Z,58.20
2018-12-03T00:22:18.496Z,58.20
2018-12-03T00:22:56.048Z,58.20
2018-12-03T00:23:33.415Z,58.30
2018-12-03T00:24:11.471Z,58.30
2018-12-03T00:24:49.126Z,58.30
2018-12-03T00:25:26.584Z,58.30
2018-12-03T00:26:04.096Z,58.30
2018-12-03T00:26:41.554Z,58.30
2018-12-03T00:27:19.411Z,58.20
2018-12-03T00:27:56.935Z,58.20
2018-12-03T00:28:34.609Z,58.20
2018-12-03T00:29:12.456Z,58.30
2018-12-03T00:29:50.148Z,58.20
2018-12-03T00:30:27.798Z,58.20
2018-12-03T00:31:05.529Z,58.20
2018-12-03T00:31:43.086Z,58.20
2018-12-03T00:32:20.718Z,58.30
2018-12-03T00:32:58.218Z,58.20
2018-12-03T00:33:36.296Z,58.30
2018-12-03T00:34:14.072Z,58.20
2018-12-03T00:34:51.770Z,58.30
2018-12-03T00:35:29.467Z,58.40
2018-12-03T00:36:07.587Z,58.40
2018-12-03T00:36:45.246Z,58.30
2018-12-03T00:37:22.999Z,58.40
2018-12-03T00:38:00.795Z,58.40
2018-12-03T00:38:38.954Z,58.40
2018-12-03T00:39:16.587Z,58.40
2018-12-03T00:39:55.096Z,58.30
2018-12-03T00:40:32.846Z,58.40
2018-12-03T00:41:10.597Z,58.40
2018-12-03T00:41:48.085Z,58.40
2018-12-03T00:42:27.121Z,58.40
2018-12-03T00:43:04.765Z,58.30
2018-12-03T00:43:42.426Z,58.30
2018-12-03T00:44:19.867Z,58.40
2018-12-03T00:44:57.385Z,58.30
2018-12-03T00:45:34.920Z,58.40
2018-12-03T00:46:12.575Z,58.40
2018-12-03T00:46:50.327Z,58.30
2018-12-03T00:47:28.016Z,58.30
2018-12-03T00:48:05.465Z,58.30
2018-12-03T00:48:43.206Z,58.50
2018-12-03T00:49:21.177Z,58.50
2018-12-03T00:49:58.955Z,58.40
2018-12-03T00:50:36.962Z,58.50
2018-12-03T00:51:14.675Z,58.40
2018-12-03T00:51:52.586Z,58.20
2018-12-03T00:52:30.106Z,58.30
2018-12-03T00:53:07.635Z,58.20
2018-12-03T00:53:45.246Z,58.20
2018-12-03T00:54:22.836Z,58.20
2018-12-03T00:55:00.376Z,58.10
2018-12-03T00:55:38.085Z,58.10
2018-12-03T00:56:15.647Z,58.20
2018-12-03T00:56:53.180Z,58.10
2018-12-03T00:57:30.954Z,58.20
2018-12-03T00:58:08.528Z,58.80
2018-12-03T00:58:46.166Z,58.20
2018-12-03T00:59:23.795Z,58.20
2018-12-03T01:00:01.645Z,58.20
2018-12-03T01:00:39.325Z,58.30
2018-12-03T01:01:17.058Z,58.30
2018-12-03T01:01:54.595Z,58.30
2018-12-03T01:02:31.967Z,58.20
2018-12-03T01:03:09.695Z,58.30
2018-12-03T01:03:47.219Z,58.30
2018-12-03T01:04:24.828Z,58.30
2018-12-03T01:05:02.570Z,58.20
2018-12-03T01:05:40.167Z,58.30
2018-12-03T01:06:17.913Z,58.30
2018-12-03T01:06:55.595Z,58.30
2018-12-03T01:07:33.464Z,58.30
2018-12-03T01:08:11.270Z,58.30
2018-12-03T01:08:48.951Z,58.20
2018-12-03T01:09:26.359Z,58.40
2018-12-03T01:10:04.114Z,58.30
2018-12-03T01:10:41.714Z,58.30
2018-12-03T01:11:19.197Z,58.30
2018-12-03T01:11:57.096Z,58.40
2018-12-03T01:12:34.656Z,58.30
2018-12-03T01:13:12.362Z,58.30
2018-12-03T01:13:50.240Z,58.40
2018-12-03T01:14:27.967Z,58.40
2018-12-03T01:15:05.803Z,58.40
2018-12-03T01:15:43.481Z,58.30
2018-12-03T01:16:21.115Z,58.30
2018-12-03T01:16:58.859Z,58.40
2018-12-03T01:17:36.292Z,58.30
2018-12-03T01:18:13.808Z,58.40
2018-12-03T01:18:51.556Z,58.40
2018-12-03T01:19:29.163Z,58.40
2018-12-03T01:20:06.871Z,58.50
2018-12-03T01:20:44.448Z,58.40
2018-12-03T01:21:21.814Z,58.50
2018-12-03T01:21:59.346Z,58.40
2018-12-03T01:22:36.845Z,58.40
2018-12-03T01:23:14.545Z,58.40
2018-12-03T01:23:52.255Z,58.40
2018-12-03T01:24:29.976Z,58.40
2018-12-03T01:25:07.667Z,58.40
2018-12-03T01:25:45.331Z,58.50
2018-12-03T01:26:22.775Z,58.50
2018-12-03T01:27:00.303Z,58.50
2018-12-03T01:27:37.642Z,58.40
2018-12-03T01:28:15.306Z,58.40
2018-12-03T01:28:53.050Z,58.50
2018-12-03T01:29:31.047Z,58.50
2018-12-03T01:30:08.763Z,58.50
2018-12-03T01:30:46.497Z,58.40
2018-12-03T01:31:24.426Z,58.50
2018-12-03T01:32:02.231Z,58.50
2018-12-03T01:32:40.126Z,58.50
2018-12-03T01:33:17.800Z,58.50
2018-12-03T01:33:55.147Z,58.50
2018-12-03T01:34:32.566Z,58.50
2018-12-03T01:35:09.897Z,58.40
2018-12-03T01:35:47.416Z,58.50
2018-12-03T01:36:24.765Z,58.50
2018-12-03T01:37:02.490Z,58.40
2018-12-03T01:37:40.074Z,58.40
2018-12-03T01:38:17.736Z,58.50
2018-12-03T01:38:55.320Z,58.50
2018-12-03T01:39:32.843Z,58.50
2018-12-03T01:40:10.684Z,58.50
2018-12-03T01:40:48.459Z,58.40
2018-12-03T01:41:26.296Z,58.40
2018-12-03T01:42:03.928Z,58.40
2018-12-03T01:42:41.580Z,58.50
2018-12-03T01:43:19.020Z,58.50
2018-12-03T01:43:56.637Z,58.40
2018-12-03T01:44:34.216Z,58.50
2018-12-03T01:45:11.769Z,58.50
2018-12-03T01:45:49.526Z,58.50
2018-12-03T01:46:27.737Z,58.50
2018-12-03T01:47:05.739Z,58.50
2018-12-03T01:47:43.258Z,58.50
2018-12-03T01:48:20.908Z,58.00
2018-12-03T01:49:00.854Z,58.50
2018-12-03T01:49:38.361Z,58.50
2018-12-03T01:50:16.108Z,58.50
2018-12-03T01:50:53.857Z,58.60
2018-12-03T01:51:31.507Z,58.50
2018-12-03T01:52:09.145Z,58.50
2018-12-03T01:52:46.836Z,58.50
2018-12-03T01:53:24.582Z,58.20
2018-12-03T01:54:02.333Z,58.50
2018-12-03T01:54:40.067Z,58.50
2018-12-03T01:55:17.937Z,58.50
2018-12-03T01:55:55.556Z,58.50
2018-12-03T01:56:33.055Z,58.50
2018-12-03T01:57:10.905Z,58.60
2018-12-03T01:57:49.337Z,58.50
2018-12-03T01:58:26.956Z,58.50
2018-12-03T01:59:04.817Z,58.50
2018-12-03T01:59:42.376Z,58.50
2018-12-03T02:00:20.036Z,58.60
2018-12-03T02:00:57.334Z,58.60
2018-12-03T02:01:34.917Z,58.60
2018-12-03T02:02:12.243Z,58.60
2018-12-03T02:02:49.652Z,58.60
2018-12-03T02:03:27.397Z,58.50
2018-12-03T02:04:05.121Z,58.60
2018-12-03T02:04:42.851Z,58.60
2018-12-03T02:05:20.512Z,58.60
2018-12-03T02:05:58.025Z,58.60
2018-12-03T02:06:35.988Z,58.60
2018-12-03T02:07:13.627Z,58.60
2018-12-03T02:07:51.047Z,58.60
2018-12-03T02:08:29.250Z,58.60
2018-12-03T02:09:06.887Z,58.70
2018-12-03T02:09:44.736Z,58.60
2018-12-03T02:10:22.267Z,58.60
2018-12-03T02:11:00.045Z,58.70
2018-12-03T02:11:37.826Z,58.60
2018-12-03T02:12:15.435Z,58.70
2018-12-03T02:12:53.162Z,58.60
2018-12-03T02:13:30.761Z,58.60
2018-12-03T02:14:08.695Z,58.60
2018-12-03T02:14:46.365Z,58.60
2018-12-03T02:15:23.737Z,58.70
2018-12-03T02:16:01.618Z,58.60
2018-12-03T02:16:39.316Z,58.60
2018-12-03T02:17:16.997Z,59.30
2018-12-03T02:17:54.605Z,58.60
2018-12-03T02:18:32.526Z,58.60
2018-12-03T02:19:10.136Z,58.70
2018-12-03T02:19:47.847Z,58.60
2018-12-03T02:20:25.646Z,58.60
2018-12-03T02:21:03.428Z,58.60
2018-12-03T02:21:40.999Z,58.60
2018-12-03T02:22:18.436Z,58.50
2018-12-03T02:22:56.385Z,58.70
2018-12-03T02:23:33.754Z,58.70
2018-12-03T02:24:11.555Z,58.70
2018-12-03T02:24:49.164Z,58.60
2018-12-03T02:25:26.708Z,58.60
2018-12-03T02:26:04.228Z,58.60
2018-12-03T02:26:41.606Z,58.60
2018-12-03T02:27:19.667Z,58.70
2018-12-03T02:27:57.237Z,58.70
2018-12-03T02:28:34.776Z,58.70
2018-12-03T02:29:12.404Z,58.80
2018-12-03T02:29:50.056Z,58.70
2018-12-03T02:30:27.977Z,58.70
2018-12-03T02:31:05.410Z,58.70
2018-12-03T02:31:43.194Z,58.70
2018-12-03T02:32:20.840Z,58.70
2018-12-03T02:32:58.744Z,58.70
2018-12-03T02:33:36.424Z,58.70
2018-12-03T02:34:13.750Z,58.70
2018-12-03T02:34:51.367Z,58.70
2018-12-03T02:35:28.954Z,58.80
2018-12-03T02:36:06.443Z,58.80
2018-12-03T02:36:44.044Z,58.70
2018-12-03T02:37:21.684Z,59.30
2018-12-03T02:37:59.259Z,58.70
2018-12-03T02:38:37.207Z,58.80
2018-12-03T02:39:14.644Z,58.90
2018-12-03T02:39:52.107Z,58.80
2018-12-03T02:40:29.637Z,58.70
2018-12-03T02:41:07.145Z,58.80
2018-12-03T02:41:44.695Z,58.80
2018-12-03T02:42:22.424Z,58.80
2018-12-03T02:42:59.991Z,58.80
2018-12-03T02:43:37.504Z,58.70
2018-12-03T02:44:14.935Z,58.80
2018-12-03T02:44:52.604Z,58.90
2018-12-03T02:45:30.284Z,58.80
2018-12-03T02:46:07.880Z,58.80
2018-12-03T02:46:45.474Z,58.80
2018-12-03T02:47:23.109Z,58.90
2018-12-03T02:48:00.643Z,58.90
2018-12-03T02:48:38.394Z,58.80
2018-12-03T02:49:16.133Z,58.70
2018-12-03T02:49:53.724Z,58.70
2018-12-03T02:50:31.375Z,58.70
2018-12-03T02:51:09.162Z,58.90
2018-12-03T02:51:46.698Z,58.80
2018-12-03T02:52:24.624Z,58.80
2018-12-03T02:53:02.274Z,58.80
2018-12-03T02:53:40.103Z,58.80
2018-12-03T02:54:17.703Z,58.80
2018-12-03T02:54:55.403Z,58.90
2018-12-03T02:55:33.102Z,58.80
2018-12-03T02:56:10.510Z,58.70
2018-12-03T02:56:48.284Z,58.90
2018-12-03T02:57:26.033Z,58.90
2018-12-03T02:58:03.523Z,58.90
2018-12-03T02:58:41.124Z,58.90
2018-12-03T02:59:18.944Z,58.90
2018-12-03T02:59:56.706Z,58.90
2018-12-03T03:00:34.513Z,58.90
2018-12-03T03:01:12.122Z,58.80
2018-12-03T03:01:49.874Z,58.80
2018-12-03T03:02:27.502Z,58.90
2018-12-03T03:03:05.034Z,58.80
2018-12-03T03:03:42.744Z,58.90
2018-12-03T03:04:20.784Z,58.90
2018-12-03T03:04:58.621Z,58.90
2018-12-03T03:05:36.345Z,59.00
2018-12-03T03:06:14.132Z,59.50
2018-12-03T03:06:52.172Z,58.90
2018-12-03T03:07:29.731Z,58.90
2018-12-03T03:08:07.557Z,58.90
2018-12-03T03:08:45.354Z,58.90
2018-12-03T03:09:22.933Z,58.90
2018-12-03T03:10:00.591Z,58.90
2018-12-03T03:10:37.951Z,58.90
2018-12-03T03:11:15.385Z,58.90
2018-12-03T03:11:52.813Z,59.00
2018-12-03T03:12:30.492Z,58.90
2018-12-03T03:13:08.432Z,58.90
2018-12-03T03:13:46.062Z,58.90
2018-12-03T03:14:23.846Z,58.90
2018-12-03T03:15:01.441Z,58.90
2018-12-03T03:15:39.356Z,58.90
2018-12-03T03:16:17.213Z,58.90
2018-12-03T03:16:54.883Z,58.90
2018-12-03T03:17:32.586Z,58.90
2018-12-03T03:18:10.106Z,59.00
2018-12-03T03:18:47.661Z,58.90
2018-12-03T03:19:25.232Z,59.00
2018-12-03T03:20:02.773Z,59.00
2018-12-03T03:20:40.346Z,59.00
2018-12-03T03:21:17.941Z,59.00
2018-12-03T03:21:56.239Z,59.00
2018-12-03T03:22:33.862Z,59.00
2018-12-03T03:23:11.312Z,58.80
2018-12-03T03:23:48.906Z,59.00
2018-12-03T03:24:26.524Z,59.60
2018-12-03T03:25:04.232Z,59.00
2018-12-03T03:25:41.901Z,59.00
2018-12-03T03:26:19.563Z,59.00
2018-12-03T03:26:57.297Z,59.00
2018-12-03T03:27:35.009Z,59.00
2018-12-03T03:28:12.841Z,59.00
2018-12-03T03:28:50.662Z,59.00
2018-12-03T03:29:28.280Z,59.00
2018-12-03T03:30:06.029Z,58.90
2018-12-03T03:30:43.833Z,58.90
2018-12-03T03:31:21.376Z,58.90
2018-12-03T03:31:59.032Z,59.00
2018-12-03T03:32:36.713Z,58.90
2018-12-03T03:33:14.214Z,59.00
2018-12-03T03:33:51.877Z,59.00
2018-12-03T03:34:29.622Z,59.00
2018-12-03T03:35:07.561Z,59.00
2018-12-03T03:35:45.189Z,59.00
2018-12-03T03:36:23.069Z,59.00
2018-12-03T03:37:00.940Z,59.00
2018-12-03T03:37:38.433Z,59.00
2018-12-03T03:38:16.121Z,59.00
2018-12-03T03:38:53.672Z,59.00
2018-12-03T03:39:31.162Z,59.00
2018-12-03T03:40:08.870Z,59.00
2018-12-03T03:40:47.029Z,59.00
2018-12-03T03:41:24.833Z,59.00
2018-12-03T03:42:02.424Z,59.00
2018-12-03T03:42:40.126Z,59.00
2018-12-03T03:43:18.230Z,59.00
2018-12-03T03:43:56.030Z,58.90
2018-12-03T03:44:33.400Z,59.00
2018-12-03T03:45:10.909Z,59.00
2018-12-03T03:45:48.640Z,59.00
2018-12-03T03:46:27.057Z,59.00
2018-12-03T03:47:04.782Z,58.90
2018-12-03T03:47:42.346Z,59.00
2018-12-03T03:48:19.805Z,59.00
2018-12-03T03:48:57.551Z,59.00
2018-12-03T03:49:35.360Z,58.90
2018-12-03T03:50:12.818Z,59.00
2018-12-03T03:50:50.260Z,59.00
2018-12-03T03:51:28.042Z,59.00
2018-12-03T03:52:06.469Z,59.00
2018-12-03T03:52:44.190Z,58.90
2018-12-03T03:53:21.818Z,59.00
2018-12-03T03:53:59.261Z,59.00
2018-12-03T03:54:36.959Z,59.00
2018-12-03T03:55:14.667Z,58.90
2018-12-03T03:55:52.395Z,58.90
2018-12-03T03:56:30.403Z,59.00
2018-12-03T03:57:07.815Z,58.90
2018-12-03T03:57:45.590Z,58.80
2018-12-03T03:58:23.160Z,58.90
2018-12-03T03:59:01.131Z,59.10
2018-12-03T03:59:38.805Z,59.00
2018-12-03T04:00:16.289Z,59.00
2018-12-03T04:00:54.099Z,59.00
2018-12-03T04:01:31.790Z,59.00
2018-12-03T04:02:09.474Z,59.00
2018-12-03T04:02:47.186Z,59.00
2018-12-03T04:03:24.958Z,59.10
2018-12-03T04:04:02.523Z,59.00
2018-12-03T04:04:40.139Z,59.30
2018-12-03T04:05:17.660Z,59.00
2018-12-03T04:05:55.272Z,59.00
2018-12-03T04:06:32.970Z,58.90
2018-12-03T04:07:10.509Z,58.90
2018-12-03T04:07:48.208Z,59.10
2018-12-03T04:08:25.970Z,59.10
2018-12-03T04:09:03.402Z,59.10
2018-12-03T04:09:41.071Z,59.00
2018-12-03T04:10:18.880Z,59.00
2018-12-03T04:10:56.649Z,59.10
2018-12-03T04:11:34.092Z,59.00
2018-12-03T04:12:11.938Z,59.00
2018-12-03T04:12:49.709Z,59.10
2018-12-03T04:13:27.432Z,59.10
2018-12-03T04:14:04.963Z,59.10
2018-12-03T04:14:42.689Z,59.20
2018-12-03T04:15:20.394Z,59.10
2018-12-03T04:15:58.135Z,59.00
2018-12-03T04:16:35.814Z,59.00
2018-12-03T04:17:13.368Z,59.00
2018-12-03T04:17:51.195Z,59.10
2018-12-03T04:18:29.159Z,59.10
2018-12-03T04:19:06.931Z,59.10
2018-12-03T04:19:44.481Z,59.10
2018-12-03T04:20:22.279Z,59.20
2018-12-03T04:20:59.674Z,59.20
2018-12-03T04:21:37.386Z,59.20
2018-12-03T04:22:14.849Z,59.30
2018-12-03T04:22:52.622Z,59.30
2018-12-03T04:23:30.327Z,59.30
2018-12-03T04:24:07.931Z,59.20
2018-12-03T04:24:45.488Z,59.30
2018-12-03T04:25:23.579Z,59.30
2018-12-03T04:26:01.579Z,59.10
2018-12-03T04:26:39.119Z,59.10
2018-12-03T04:27:17.085Z,59.30
2018-12-03T04:27:54.989Z,59.30
2018-12-03T04:28:32.518Z,59.20
2018-12-03T04:29:10.562Z,59.20
2018-12-03T04:29:48.317Z,59.30
2018-12-03T04:30:26.158Z,59.30
2018-12-03T04:31:04.028Z,59.20
2018-12-03T04:31:41.959Z,59.30
2018-12-03T04:32:19.708Z,59.30
2018-12-03T04:32:57.292Z,59.30
2018-12-03T04:33:34.670Z,59.20
2018-12-03T04:34:12.659Z,59.20
2018-12-03T04:34:50.197Z,59.30
2018-12-03T04:35:27.731Z,59.20
2018-12-03T04:36:05.338Z,59.20
2018-12-03T04:36:43.114Z,59.20
2018-12-03T04:37:20.834Z,59.30
2018-12-03T04:37:58.475Z,59.20
2018-12-03T04:38:36.178Z,59.20
2018-12-03T04:39:13.742Z,59.10
2018-12-03T04:39:51.547Z,59.20
2018-12-03T04:40:29.195Z,59.30
2018-12-03T04:41:07.307Z,59.20
2018-12-03T04:41:45.259Z,59.50
2018-12-03T04:42:23.049Z,59.20
2018-12-03T04:43:00.699Z,59.30
2018-12-03T04:43:38.409Z,59.90
2018-12-03T04:44:16.116Z,59.30
2018-12-03T04:44:53.910Z,59.00
2018-12-03T04:45:31.679Z,59.40
2018-12-03T04:46:09.458Z,59.40
2018-12-03T04:46:47.068Z,59.30
2018-12-03T04:47:24.751Z,59.30
2018-12-03T04:48:02.499Z,59.30
2018-12-03T04:48:39.891Z,59.30
2018-12-03T04:49:17.391Z,59.30
2018-12-03T04:49:55.071Z,58.90
2018-12-03T04:50:33.038Z,59.40
2018-12-03T04:51:10.720Z,59.30
2018-12-03T04:51:48.550Z,59.30
2018-12-03T04:52:26.079Z,59.30
2018-12-03T04:53:03.779Z,59.40
2018-12-03T04:53:41.449Z,59.40
2018-12-03T04:54:19.079Z,59.30
2018-12-03T04:54:56.786Z,59.60
2018-12-03T04:55:34.584Z,59.30
2018-12-03T04:56:12.279Z,59.30
2018-12-03T04:56:50.440Z,59.40
2018-12-03T04:57:28.188Z,59.40
2018-12-03T04:58:05.692Z,59.30
2018-12-03T04:58:43.237Z,59.40
2018-12-03T04:59:20.799Z,59.30
2018-12-03T04:59:58.598Z,59.30
2018-12-03T05:00:36.278Z,59.30
2018-12-03T05:01:13.859Z,59.20
2018-12-03T05:01:52.421Z,59.30
2018-12-03T05:02:29.806Z,59.30
2018-12-03T05:03:07.469Z,59.40
2018-12-03T05:03:44.899Z,59.40
2018-12-03T05:04:22.528Z,59.40
2018-12-03T05:05:00.220Z,59.40
2018-12-03T05:05:38.260Z,59.40
2018-12-03T05:06:15.839Z,59.40
2018-12-03T05:06:53.772Z,59.40
2018-12-03T05:07:31.438Z,59.30
2018-12-03T05:08:09.331Z,59.40
2018-12-03T05:08:47.130Z,59.40
2018-12-03T05:09:24.875Z,59.40
2018-12-03T05:10:02.666Z,59.40
2018-12-03T05:10:40.355Z,59.50
2018-12-03T05:11:17.990Z,59.40
2018-12-03T05:11:56.016Z,59.40
2018-12-03T05:12:33.670Z,59.40
2018-12-03T05:13:11.092Z,59.50
2018-12-03T05:13:48.964Z,59.50
2018-12-03T05:14:26.489Z,59.40
2018-12-03T05:15:04.100Z,59.40
2018-12-03T05:15:41.866Z,59.40
2018-12-03T05:16:19.692Z,59.50
2018-12-03T05:16:57.379Z,59.50
2018-12-03T05:17:34.852Z,59.40
2018-12-03T05:18:12.211Z,59.50
2018-12-03T05:18:49.820Z,59.40
2018-12-03T05:19:27.573Z,59.40
2018-12-03T05:20:05.347Z,59.50
2018-12-03T05:20:42.764Z,59.40
2018-12-03T05:21:20.290Z,59.40
2018-12-03T05:21:58.923Z,59.40
2018-12-03T05:22:36.700Z,59.50
2018-12-03T05:23:14.524Z,59.50
2018-12-03T05:23:52.121Z,59.50
2018-12-03T05:24:29.921Z,59.50
2018-12-03T05:25:07.730Z,59.70
2018-12-03T05:25:45.421Z,59.60
2018-12-03T05:26:23.148Z,59.60
2018-12-03T05:27:00.828Z,59.50
2018-12-03T05:27:38.443Z,59.40
2018-12-03T05:28:16.224Z,59.40
2018-12-03T05:28:53.853Z,59.40
2018-12-03T05:29:31.354Z,59.50
2018-12-03T05:30:09.251Z,59.50
2018-12-03T05:30:46.791Z,59.60
2018-12-03T05:31:24.293Z,59.60
2018-12-03T05:32:01.981Z,59.50
2018-12-03T05:32:39.612Z,59.50
2018-12-03T05:33:17.200Z,59.50
2018-12-03T05:33:54.524Z,60.00
2018-12-03T05:34:32.491Z,59.50
2018-12-03T05:35:10.003Z,59.40
2018-12-03T05:35:47.721Z,59.50
2018-12-03T05:36:25.340Z,59.50
2018-12-03T05:37:02.851Z,59.50
2018-12-03T05:37:40.341Z,59.50
2018-12-03T05:38:18.041Z,59.60
2018-12-03T05:38:55.894Z,59.50
2018-12-03T05:39:33.600Z,59.60
2018-12-03T05:40:11.232Z,59.60
2018-12-03T05:40:48.954Z,59.50
2018-12-03T05:41:26.521Z,59.50
2018-12-03T05:42:04.061Z,59.60
2018-12-03T05:42:41.764Z,59.60
2018-12-03T05:43:19.312Z,59.50
2018-12-03T05:43:56.644Z,59.60
2018-12-03T05:44:34.396Z,59.50
2018-12-03T05:45:12.190Z,59.50
2018-12-03T05:45:50.041Z,59.60
2018-12-03T05:46:27.840Z,59.60
2018-12-03T05:47:05.614Z,59.60
2018-12-03T05:47:43.283Z,59.60
2018-12-03T05:48:20.945Z,59.60
2018-12-03T05:48:58.837Z,59.50
2018-12-03T05:49:36.727Z,59.60
2018-12-03T05:50:14.228Z,60.00
2018-12-03T05:50:51.753Z,59.50
2018-12-03T05:51:29.703Z,59.60
2018-12-03T05:52:07.270Z,60.20
2018-12-03T05:52:44.675Z,59.60
2018-12-03T05:53:22.155Z,59.60
2018-12-03T05:53:59.916Z,59.60
2018-12-03T05:54:37.620Z,59.60
2018-12-03T05:55:15.364Z,59.60
2018-12-03T05:55:53.065Z,59.50
2018-12-03T05:56:30.887Z,59.60
2018-12-03T05:57:08.544Z,59.60
2018-12-03T05:57:46.116Z,59.60
2018-12-03T05:58:23.487Z,59.60
2018-12-03T05:59:01.299Z,59.60
2018-12-03T05:59:39.014Z,59.50
2018-12-03T06:00:17.188Z,59.50
2018-12-03T06:00:55.229Z,59.50
2018-12-03T06:01:32.654Z,59.60
2018-12-03T06:02:10.567Z,59.50
2018-12-03T06:02:48.087Z,59.40
2018-12-03T06:03:25.771Z,59.50
2018-12-03T06:04:03.476Z,59.70
2018-12-03T06:04:41.161Z,59.70
2018-12-03T06:05:18.848Z,59.60
2018-12-03T06:05:56.499Z,59.70
2018-12-03T06:06:34.397Z,59.70
2018-12-03T06:07:12.111Z,59.70
2018-12-03T06:07:49.888Z,59.70
2018-12-03T06:08:27.342Z,59.80
2018-12-03T06:09:05.189Z,59.80
2018-12-03T06:09:42.957Z,60.20
2018-12-03T06:10:20.358Z,59.90
2018-12-03T06:10:57.723Z,59.90
2018-12-03T06:11:35.516Z,59.90
2018-12-03T06:12:13.280Z,59.80
2018-12-03T06:12:50.921Z,59.80
2018-12-03T06:13:28.611Z,59.80
2018-12-03T06:14:06.108Z,59.80
2018-12-03T06:14:43.780Z,59.80
2018-12-03T06:15:21.642Z,59.80
2018-12-03T06:15:59.332Z,59.80
2018-12-03T06:16:37.067Z,59.80
2018-12-03T06:17:15.921Z,59.80
2018-12-03T06:17:53.462Z,59.80
2018-12-03T06:18:31.980Z,59.90
2018-12-03T06:19:09.842Z,60.00
2018-12-03T06:19:47.396Z,60.00
2018-12-03T06:20:25.351Z,60.00
2018-12-03T06:21:02.900Z,60.10
2018-12-03T06:21:40.582Z,60.00
2018-12-03T06:22:18.284Z,60.10
2018-12-03T06:22:55.907Z,60.10
2018-12-03T06:23:33.527Z,60.10
2018-12-03T06:24:11.313Z,60.90
2018-12-03T06:24:49.022Z,60.20
2018-12-03T06:25:26.562Z,60.20
2018-12-03T06:26:04.259Z,60.20
2018-12-03T06:26:41.963Z,60.20
2018-12-03T06:27:19.415Z,60.20
2018-12-03T06:27:56.868Z,60.20
2018-12-03T06:28:34.168Z,60.10
2018-12-03T06:29:11.727Z,60.10
2018-12-03T06:29:48.983Z,60.10
2018-12-03T06:30:26.423Z,60.10
2018-12-03T06:31:03.885Z,60.10
2018-12-03T06:31:41.586Z,60.10
2018-12-03T06:32:19.013Z,60.10
2018-12-03T06:32:56.595Z,60.10
2018-12-03T06:33:34.605Z,60.10
2018-12-03T06:34:12.155Z,60.10
2018-12-03T06:34:49.820Z,60.00
2018-12-03T06:35:27.466Z,60.00
2018-12-03T06:36:05.056Z,60.00
2018-12-03T06:36:42.879Z,60.00
2018-12-03T06:37:20.685Z,60.00
2018-12-03T06:37:58.469Z,60.00
2018-12-03T06:38:35.996Z,59.90
2018-12-03T06:39:13.811Z,59.90
2018-12-03T06:39:51.497Z,59.90
2018-12-03T06:40:29.108Z,59.90
2018-12-03T06:41:06.819Z,59.90
2018-12-03T06:41:44.376Z,59.90
2018-12-03T06:42:22.026Z,59.80
2018-12-03T06:42:59.663Z,59.80
2018-12-03T06:43:37.138Z,59.70
2018-12-03T06:44:14.627Z,59.80
2018-12-03T06:44:52.561Z,59.80
2018-12-03T06:45:30.112Z,59.70
2018-12-03T06:46:07.686Z,59.80
2018-12-03T06:46:45.222Z,59.80
2018-12-03T06:47:22.867Z,59.70
2018-12-03T06:48:00.536Z,59.70
2018-12-03T06:48:38.474Z,59.70
2018-12-03T06:49:16.168Z,59.60
2018-12-03T06:49:53.973Z,59.70
2018-12-03T06:50:31.632Z,59.70
2018-12-03T06:51:09.069Z,59.60
2018-12-03T06:51:46.691Z,59.60
2018-12-03T06:52:24.534Z,60.20
2018-12-03T06:53:02.169Z,59.60
2018-12-03T06:53:39.752Z,59.50
2018-12-03T06:54:17.461Z,59.60
2018-12-03T06:54:55.102Z,59.60
2018-12-03T06:55:33.003Z,59.60
2018-12-03T06:56:10.618Z,59.50
2018-12-03T06:56:48.194Z,59.50
2018-12-03T06:57:25.859Z,59.50
2018-12-03T06:58:03.599Z,59.50
2018-12-03T06:58:41.601Z,59.50
2018-12-03T06:59:19.361Z,59.40
2018-12-03T06:59:57.159Z,59.50
2018-12-03T07:00:34.572Z,59.50
2018-12-03T07:01:12.173Z,59.50
2018-12-03T07:01:49.558Z,59.50
2018-12-03T07:02:27.639Z,59.50
2018-12-03T07:03:05.480Z,59.50
2018-12-03T07:03:43.159Z,59.50
2018-12-03T07:04:20.779Z,59.40
2018-12-03T07:04:58.341Z,59.40
2018-12-03T07:05:35.731Z,59.40
2018-12-03T07:06:13.391Z,59.40
2018-12-03T07:06:50.911Z,59.90
2018-12-03T07:07:28.499Z,59.90
2018-12-03T07:08:06.401Z,59.30
2018-12-03T07:08:43.875Z,59.40
2018-12-03T07:09:21.444Z,59.30
2018-12-03T07:09:59.100Z,59.30
2018-12-03T07:10:36.702Z,59.40
2018-12-03T07:11:14.479Z,59.40
2018-12-03T07:11:51.869Z,59.30
2018-12-03T07:12:29.515Z,59.40
2018-12-03T07:13:07.165Z,59.40
2018-12-03T07:13:44.922Z,59.30
2018-12-03T07:14:22.519Z,59.30
2018-12-03T07:15:00.323Z,59.40
2018-12-03T07:15:37.868Z,59.20
2018-12-03T07:16:15.536Z,59.20
2018-12-03T07:16:53.282Z,59.30
2018-12-03T07:17:31.032Z,59.20
2018-12-03T07:18:08.631Z,59.20
2018-12-03T07:18:46.175Z,59.20
2018-12-03T07:19:24.686Z,59.80
2018-12-03T07:20:02.474Z,59.30
2018-12-03T07:20:40.353Z,59.20
2018-12-03T07:21:17.824Z,59.10
2018-12-03T07:21:55.566Z,59.20
2018-12-03T07:22:33.233Z,59.20
2018-12-03T07:23:10.912Z,59.40
2018-12-03T07:23:48.414Z,59.20
2018-12-03T07:24:26.384Z,59.20
2018-12-03T07:25:03.868Z,59.20
2018-12-03T07:25:41.443Z,59.20
2018-12-03T07:26:19.300Z,59.10
2018-12-03T07:26:56.930Z,59.20
2018-12-03T07:27:34.619Z,59.20
2018-12-03T07:28:12.437Z,59.10
2018-12-03T07:28:50.144Z,59.10
2018-12-03T07:29:27.829Z,59.10
2018-12-03T07:30:05.403Z,59.10
2018-12-03T07:30:42.904Z,59.10
2018-12-03T07:31:21.147Z,59.10
2018-12-03T07:31:58.493Z,59.00
2018-12-03T07:32:36.333Z,59.10
2018-12-03T07:33:14.333Z,59.10
2018-12-03T07:33:51.949Z,59.00
2018-12-03T07:34:29.705Z,59.00
2018-12-03T07:35:07.484Z,59.00
2018-12-03T07:35:45.224Z,59.00
2018-12-03T07:36:22.893Z,59.00
2018-12-03T07:37:00.514Z,59.00
2018-12-03T07:37:38.074Z,59.00
2018-12-03T07:38:15.918Z,59.00
2018-12-03T07:38:53.865Z,59.00
2018-12-03T07:39:31.591Z,59.00
2018-12-03T07:40:09.471Z,58.90
2018-12-03T07:40:47.279Z,59.00
2018-12-03T07:41:25.056Z,59.00
2018-12-03T07:42:02.690Z,59.00
2018-12-03T07:42:40.216Z,59.00
2018-12-03T07:43:18.837Z,59.00
2018-12-03T07:43:56.527Z,58.90
2018-12-03T07:44:34.290Z,59.00
2018-12-03T07:45:11.824Z,59.00
2018-12-03T07:45:49.332Z,59.00
2018-12-03T07:46:26.879Z,59.00
2018-12-03T07:47:04.557Z,59.00
2018-12-03T07:47:41.988Z,59.00
2018-12-03T07:48:19.786Z,58.90
2018-12-03T07:48:57.678Z,59.00
2018-12-03T07:49:35.321Z,59.00
2018-12-03T07:50:13.068Z,59.00
2018-12-03T07:50:50.827Z,59.00
2018-12-03T07:51:28.369Z,59.00
2018-12-03T07:52:06.296Z,59.00
2018-12-03T07:52:43.700Z,58.80
2018-12-03T07:53:21.228Z,58.90
2018-12-03T07:53:58.829Z,58.90
2018-12-03T07:54:36.407Z,58.90
2018-12-03T07:55:13.939Z,58.90
2018-12-03T07:55:51.380Z,58.90
2018-12-03T07:56:28.941Z,58.90
2018-12-03T07:57:06.419Z,58.90
2018-12-03T07:57:44.048Z,58.90
2018-12-03T07:58:21.448Z,58.90
2018-12-03T07:58:58.768Z,58.90
2018-12-03T07:59:36.121Z,58.90
2018-12-03T08:00:13.853Z,58.90
2018-12-03T08:00:51.441Z,58.90
2018-12-03T08:01:28.992Z,58.90
2018-12-03T08:02:06.703Z,58.90
2018-12-03T08:02:44.280Z,58.90
2018-12-03T08:03:22.239Z,58.90
2018-12-03T08:03:59.811Z,58.90
2018-12-03T08:04:37.335Z,58.90
2018-12-03T08:05:14.824Z,58.90